Airfield :
LOGIN :

Register | Disclaimer

   EN    FR    IT 

 










Legend :    VFR   Marginal VFR   IFR   Intensive IFR   Very Intensive IFR
Visi :
Ceiling :
>= 8 km
>= 3000ft
5 to 8 km
1000 to 3000 ft
1500m to 5 km
500 to 1000 ft
800 to 1500m
200 to 500 ft
< 800m
< 200 ft
Symbols :   Thunderstorms  Fog  Heavy snow  Heavy precipitations  Wind > 20 kt
SIGMETs :     Misc.  Thunderstorms  Icing  Turbulence  Mountain Waves  Volcanic Ashes







- Airport Elevation : 240 ft
- IATA code : VLC


LEVC - Valencia Manises

CURRENT METAR :
  • 241330Z 11010KT 080V140 9999 FEW045 30/18 Q1018 NOSIG

EXPIRED METARs :
  • 241300Z 12011KT 090V150 9999 FEW045 30/18 Q1018 NOSIG
  • 241230Z 13009KT 9999 FEW045 30/17 Q1018 NOSIG
  • 241200Z 13008KT 100V160 9999 FEW045 31/14 Q1019 NOSIG
  • 241130Z 13007KT 080V180 9999 FEW045 30/15 Q1019 NOSIG
  • 241100Z VRB03KT 9999 FEW045 30/13 Q1019 NOSIG

TAF TAF LEVC
Valid from the 24 at 12:00 until the 25 at 12:00 UTC


241100Z 2412/2512 VRB04KT 9999 FEW040 TX31/2413Z TN16/2506Z
BECMG 2412/2413 12010KT
BECMG 2417/2420 VRB03KT
No reported NOTAMs for that airfield.



MET'MAP, your aeronautical weather chart ! - Copyright ORBIFLY December 2007 - Disclaimer

ORBIFLY MET'MAP TEAM :

Programming & Development : Alexandra Zaïnal
Concept & Development : Baudouin d'Aumeries
Co-Development & Prog : Marc-Olivier Méhu
Technical & hardware support : Manuel Goepfert

Contact : metmap@orbifly.com




SOURCES & CREDITS :

   NOAA